PDX weather

Portland International Airport
Portland, Oregon, United States

Public forecast

Using degrees Fahrenheit for public forecast. Weather courtesy of forecast.io.

METAR (pilot weather report)

Retrieved 2018/06/22 21:53 UTC (17 minutes ago):

KPDX 222153Z VRB05KT 10SM SCT045 22/10 A3017 RMK AO2 SLP215 T02220100

TAF (pilot weather forecast)

Retrieved 2018/06/22 18:39 UTC (4 hours ago):

TAF KPDX 221736Z 2218/2318 31006KT P6SM OVC022 FM222100 31006KT P6SM OVC035 FM230000 31009KT P6SM SCT035 BKN050 FM230500 31005KT P6SM SCT030 BKN050 FM230900 31004KT P6SM OVC025